Página principal
METAR-TAF:

METAR-TAF

Aeroportos :

Öskemen, Cazaquistão

latitude: 50-02-10N, longitude: 082-29-39E, altura: 286 m

Observação actual do tempo

O boletim foi feito há 25 minutos, às 19:00 UTC
Vento calmo
Temperatura -19°C
Humidade 84%
Pressão 1040 hPa
Visibilidade: 0050 m
nevoeiro gelado

METAR: UASK 141900Z 00000MPS 0050 R30/0200 FZFG VV001 M19/M21 Q1040 R30/820248 NOSIG RMK QBB040 QFE754/1005

Hora: 01:25 (19:25 UTC)

Previsão

O boletim foi feito há 2 horas e 23 minutos, às 17:02 UTC
Previsão válida de 14 às 18 UTC a 15 às 03 UTC
Vento 2 kt com direcção variável
Visibilidade: 0200 m
a uma altura de 200 ft
nevoeiro gelado
Temporariamente
de 14 às 18 UTC a 14 às 24 UTC
Visibilidade: 0800 m
Nuvens fragmentadasa uma altura de 400 ft

TAF: UASK 141702Z 1418/1503 VRB01MPS 0200 FZFG VV002 TEMPO 1418/1424 0800 BKN004

Observações e previsões do tempo de mais de 4000 aeroportos (mensagens METAR e TAF).

As estações disponíveis são os pontos amarelos e vermelhos sobre o mapa.

Mova o rato sobre o mapa para ver o nome da estação.

Depois clique no ponto para visualizar as observações e previsões meteorológicas.

Para alterar o mapa : clique nos botões verdes com uma cruz preta para aumentar o zoom; no botão verde com uma pitada de zoom; ou nas setas verdes para mapas adjacentes.


METAR-TAF: